Terminal Aerodrome Forecast
Issued by NWS

Home | Current Version | Previous Version | Text Only | Print | Product List | Glossary On
Versions: 1 2 3 4 5 6 7 8 9 10 11 12 13 14 15 16 17 18 19 20 21 22 23 24 25 26 27 28 29 30 31 32 33 34 35 36 37 38
000
FTUS42 KRAH 190531
TAFRWI
TAF
KRWI 190531Z 1906/2006 00000KT P6SM OVC040
     FM191000 09002KT P6SM SCT030
     FM191400 11004KT P6SM OVC030
     FM191800 13004KT P6SM OVC020
     FM192200 15007KT P6SM OVC008
     FM200000 16009KT 5SM -SHRA BR OVC030
     FM200100 18009KT 3SM -SHRA BR OVC035 WS020/19040KT=

USA.gov is the U.S. government's official web portal to all federal, state and local government web resources and services.